Aviation Digital Data Service (ADDS)

Output produced by METARs form (1422 UTC 28 July 2014)
found at http://aviationweather.gov/adds/metars/
 
KPQI 281236Z 2813/2912 16006KT P6SM SCT007 BKN025 
     FM281500 15006KT P6SM OVC015 
     FM281800 14008KT P6SM -SHRA OVC015 
     FM290200 13010KT 5SM -SHRA OVC010 
     FM290600 14010KT 3SM -SHRA BR BKN005 AMD LTD TO CLD VIS AND WIND